Time;durP1;ratioP1;P1;durP2;ratioP2;P2;SDS_P1;SDS_P2;PMS_P1;PMS_P2;Temp;Humidity;BMP_temperature;BMP_pressure;BME280_temperature;BME280_humidity;BME280_pressure;Samples;Min_cycle;Max_cycle;Signal;HPM_P1;HPM_P2
2021/03/30 00:01:53;;;;;;;7.03;4.23;;;;;;;10.29;100.00;99385.03;5093965;28;20208;-71
2021/03/30 00:04:19;;;;;;;13.27;3.93;;;;;;;10.41;100.00;99382.56;5093092;28;20574;-71
2021/03/30 00:06:46;;;;;;;11.73;3.77;;;;;;;10.32;100.00;99387.16;5093308;28;20226;-71
2021/03/30 00:09:12;;;;;;;11.90;3.93;;;;;;;10.36;100.00;99393.72;5091955;28;20244;-71
2021/03/30 00:11:39;;;;;;;8.87;3.67;;;;;;;10.34;100.00;99390.44;5092863;28;20287;-71
2021/03/30 00:14:05;;;;;;;10.63;4.10;;;;;;;10.36;100.00;99394.53;5092965;28;20270;-70
2021/03/30 00:16:31;;;;;;;8.03;4.10;;;;;;;10.51;100.00;99379.63;5093056;28;20207;-71
2021/03/30 00:18:58;;;;;;;15.53;4.10;;;;;;;10.47;100.00;99378.59;5093462;28;20299;-70
2021/03/30 00:21:24;;;;;;;9.67;4.40;;;;;;;10.02;100.00;99383.81;5093184;28;20201;-71
2021/03/30 00:23:50;;;;;;;10.77;4.67;;;;;;;9.84;100.00;99384.69;5092688;28;20216;-70
2021/03/30 00:26:17;;;;;;;11.67;4.13;;;;;;;9.83;100.00;99377.56;5093032;28;20228;-71
2021/03/30 00:28:43;;;;;;;9.93;4.30;;;;;;;9.88;100.00;99382.97;5092884;28;20319;-71
2021/03/30 00:31:09;;;;;;;11.37;4.13;;;;;;;9.98;100.00;99388.31;5093116;28;20295;-70
2021/03/30 00:33:35;;;;;;;11.03;4.63;;;;;;;10.04;100.00;99381.56;5091614;28;20216;-70
2021/03/30 00:36:02;;;;;;;10.07;4.20;;;;;;;10.04;100.00;99384.34;5091438;28;20896;-70
2021/03/30 00:38:28;;;;;;;11.10;4.60;;;;;;;10.11;100.00;99381.19;5092795;28;20224;-71
2021/03/30 00:40:57;;;;;;;14.17;4.63;;;;;;;10.17;100.00;99380.00;5093021;28;20273;-70
2021/03/30 00:43:23;;;;;;;13.03;4.63;;;;;;;10.06;100.00;99376.59;5092694;28;20240;-71
2021/03/30 00:45:51;;;;;;;9.60;4.60;;;;;;;10.02;100.00;99377.47;5092495;28;20306;-70
2021/03/30 00:48:26;;;;;;;7.60;4.03;;;;;;;9.99;100.00;99378.91;5093053;28;20285;-71
2021/03/30 00:50:54;;;;;;;10.63;4.47;;;;;;;9.95;100.00;99368.78;5092625;28;20236;-71
2021/03/30 00:53:20;;;;;;;10.30;4.63;;;;;;;9.85;100.00;99377.25;5092663;28;20283;-71
2021/03/30 00:55:47;;;;;;;8.93;4.03;;;;;;;9.85;100.00;99366.22;5092563;28;20239;-71
2021/03/30 00:58:13;;;;;;;7.03;3.97;;;;;;;9.85;100.00;99369.78;5092441;28;20729;-70
2021/03/30 01:34:00;;;;;;;10.93;4.27;;;;;;;9.45;100.00;99372.41;5109549;27;20491;-71
2021/03/30 01:36:29;;;;;;;7.97;4.03;;;;;;;9.56;100.00;99371.94;5109848;27;20239;-71
2021/03/30 01:38:56;;;;;;;9.93;4.17;;;;;;;9.53;100.00;99380.81;5120908;28;20637;-71
2021/03/30 01:41:24;;;;;;;9.23;4.13;;;;;;;9.56;100.00;99377.44;5126006;28;20199;-71
2021/03/30 01:43:51;;;;;;;8.67;4.23;;;;;;;9.52;100.00;99372.84;5124170;28;20247;-69
2021/03/30 01:46:17;;;;;;;8.80;4.00;;;;;;;9.47;100.00;99367.41;5112480;28;20239;-70
2021/03/30 01:48:45;;;;;;;9.80;3.60;;;;;;;9.35;100.00;99367.03;5109366;28;20220;-70
2021/03/30 01:51:13;;;;;;;11.70;5.00;;;;;;;9.19;100.00;99370.06;5109319;28;20208;-70
2021/03/30 01:53:44;;;;;;;9.33;4.23;;;;;;;9.27;100.00;99368.53;5108988;28;20587;-70
2021/03/30 01:56:13;;;;;;;6.63;3.93;;;;;;;9.12;100.00;99368.78;5109251;28;20346;-69
2021/03/30 01:58:40;;;;;;;9.23;4.13;;;;;;;9.09;100.00;99369.34;5109346;28;20223;-71
2021/03/30 02:01:07;;;;;;;9.40;4.07;;;;;;;9.19;100.00;99369.22;5109081;28;20211;-69
2021/03/30 02:03:34;;;;;;;9.10;4.60;;;;;;;9.16;100.00;99372.56;5108669;28;20236;-70
2021/03/30 02:06:05;;;;;;;7.60;4.03;;;;;;;9.14;100.00;99377.56;5108989;28;20204;-72
2021/03/30 02:08:33;;;;;;;16.77;4.20;;;;;;;9.21;100.00;99367.00;5108810;28;20259;-71
2021/03/30 02:10:59;;;;;;;7.57;3.73;;;;;;;9.20;100.00;99366.16;5107808;28;20233;-71
2021/03/30 02:13:42;;;;;;;8.43;4.40;;;;;;;9.24;100.00;99369.13;5107595;28;20227;-71
2021/03/30 02:16:18;;;;;;;8.50;4.30;;;;;;;9.18;100.00;99368.41;5108702;28;20208;-72
2021/03/30 02:19:10;;;;;;;6.87;3.77;;;;;;;9.12;100.00;99374.28;5108798;28;20322;-71
2021/03/30 02:21:45;;;;;;;7.20;4.07;;;;;;;9.17;100.00;99366.78;5108847;28;20200;-70
2021/03/30 02:24:12;;;;;;;9.40;4.27;;;;;;;9.18;100.00;99368.41;5108407;28;20199;-70
2021/03/30 02:26:45;;;;;;;7.67;4.40;;;;;;;9.09;100.00;99378.44;5108608;28;20251;-70
2021/03/30 02:29:19;;;;;;;7.50;4.40;;;;;;;9.05;100.00;99379.34;5108625;28;20285;-70
2021/03/30 02:31:49;;;;;;;9.43;3.80;;;;;;;9.00;100.00;99369.22;5108634;28;20282;-71
2021/03/30 02:34:17;;;;;;;7.43;3.93;;;;;;;9.03;100.00;99371.38;5108500;28;20291;-70
2021/03/30 02:36:45;;;;;;;8.27;4.67;;;;;;;9.05;100.00;99373.84;5108382;28;20310;-70
2021/03/30 02:39:13;;;;;;;7.07;4.13;;;;;;;9.01;100.00;99372.78;5108378;28;20627;-70
2021/03/30 02:41:41;;;;;;;9.57;4.57;;;;;;;8.96;100.00;99375.59;5097242;28;20412;-70
2021/03/30 02:44:10;;;;;;;8.23;4.13;;;;;;;8.88;100.00;99385.38;5080912;28;20209;-70
2021/03/30 02:46:39;;;;;;;9.77;4.67;;;;;;;8.87;100.00;99380.13;5074632;28;20201;-72
2021/03/30 02:49:05;;;;;;;7.83;4.33;;;;;;;8.85;100.00;99379.63;5074315;28;20689;-71
2021/03/30 02:51:34;;;;;;;6.40;4.00;;;;;;;8.67;100.00;99388.66;5074394;28;20236;-70
2021/03/30 02:54:01;;;;;;;12.47;4.47;;;;;;;8.60;100.00;99386.25;5074449;28;20316;-70
2021/03/30 02:56:27;;;;;;;8.90;4.30;;;;;;;8.74;100.00;99383.63;5074438;28;20244;-71
2021/03/30 02:58:54;;;;;;;11.80;4.00;;;;;;;8.68;100.00;99385.63;5074504;28;20278;-71
2021/03/30 03:01:22;;;;;;;7.77;4.13;;;;;;;8.47;100.00;99383.38;5074090;28;20889;-71
2021/03/30 03:03:52;;;;;;;9.53;4.20;;;;;;;8.46;100.00;99379.00;5073861;28;20236;-70
2021/03/30 03:06:19;;;;;;;8.33;4.47;;;;;;;8.35;100.00;99389.31;5076140;28;20241;-71
2021/03/30 03:08:47;;;;;;;10.30;4.47;;;;;;;8.31;100.00;99390.19;5076720;28;20670;-71
2021/03/30 03:11:16;;;;;;;9.77;4.30;;;;;;;8.27;100.00;99384.44;5076901;28;20244;-72
2021/03/30 03:13:43;;;;;;;5.47;3.83;;;;;;;8.35;100.00;99380.25;5075155;28;20225;-70
2021/03/30 03:16:12;;;;;;;7.80;4.17;;;;;;;8.34;100.00;99378.63;5073912;28;20303;-71
2021/03/30 03:18:41;;;;;;;7.00;4.23;;;;;;;8.41;100.00;99381.81;5072594;28;20311;-71
2021/03/30 03:21:09;;;;;;;10.80;4.37;;;;;;;8.25;100.00;99383.91;5073970;28;20233;-70
2021/03/30 03:23:39;;;;;;;6.43;4.23;;;;;;;8.29;100.00;99384.97;5073475;28;20304;-72
2021/03/30 03:26:14;;;;;;;8.57;4.37;;;;;;;8.12;100.00;99393.66;5073182;28;20299;-71
2021/03/30 03:28:41;;;;;;;6.70;3.93;;;;;;;8.20;100.00;99397.69;5074892;28;20319;-72
2021/03/30 03:31:09;;;;;;;9.77;4.17;;;;;;;8.14;100.00;99396.09;5093835;28;20254;-70
2021/03/30 03:33:35;;;;;;;9.33;4.33;;;;;;;8.16;100.00;99394.72;5093379;28;20776;-70
2021/03/30 03:36:10;;;;;;;9.83;4.53;;;;;;;8.20;100.00;99397.69;5094209;28;20287;-70
2021/03/30 03:38:42;;;;;;;15.37;4.30;;;;;;;8.25;100.00;99394.13;5093885;28;20256;-71
2021/03/30 03:41:11;;;;;;;8.53;4.87;;;;;;;8.32;100.00;99394.59;5086696;28;20722;-71
2021/03/30 03:43:37;;;;;;;7.60;4.50;;;;;;;8.34;100.00;99395.91;5074336;28;20209;-71
2021/03/30 03:46:03;;;;;;;10.67;4.50;;;;;;;8.14;100.00;99396.94;5074078;28;20209;-71
2021/03/30 03:48:29;;;;;;;7.90;4.37;;;;;;;8.10;100.00;99408.81;5073525;28;20598;-70
2021/03/30 03:51:02;;;;;;;12.30;4.20;;;;;;;8.10;100.00;99400.56;5074410;28;20213;-70
2021/03/30 03:53:30;;;;;;;8.43;4.10;;;;;;;8.12;100.00;99398.31;5074184;28;20319;-72
2021/03/30 03:55:58;;;;;;;8.37;4.40;;;;;;;8.12;100.00;99399.16;5071738;28;20229;-70
2021/03/30 03:58:28;;;;;;;10.37;3.70;;;;;;;8.18;100.00;99402.66;5074268;28;20324;-71
2021/03/30 04:00:54;;;;;;;9.63;4.07;;;;;;;8.21;100.00;99402.91;5074788;28;20205;-71
2021/03/30 04:03:27;;;;;;;12.13;4.33;;;;;;;8.27;100.00;99405.63;5074113;28;20288;-71
2021/03/30 04:06:21;;;;;;;11.90;4.37;;;;;;;8.21;100.00;99407.59;5074788;28;20267;-71
2021/03/30 04:08:53;;;;;;;7.47;4.40;;;;;;;8.20;100.00;99406.78;5073999;28;20256;-71
2021/03/30 04:11:20;;;;;;;9.83;3.77;;;;;;;8.19;100.00;99404.31;5075472;28;20814;-71
2021/03/30 04:13:49;;;;;;;16.83;4.40;;;;;;;8.01;100.00;99410.56;5075337;28;20256;-71
2021/03/30 04:16:16;;;;;;;9.17;4.43;;;;;;;8.12;100.00;99404.66;5075409;28;20616;-71
2021/03/30 04:18:43;;;;;;;13.90;4.40;;;;;;;8.12;100.00;99410.13;5075976;28;20384;-71
2021/03/30 04:21:17;;;;;;;9.43;3.60;;;;;;;8.13;100.00;99400.81;5097275;28;20519;-71
2021/03/30 04:23:45;;;;;;;10.87;3.97;;;;;;;8.17;100.00;99407.34;5093144;28;20204;-72
2021/03/30 04:26:12;;;;;;;9.97;3.77;;;;;;;8.08;100.00;99402.78;5094336;28;20269;-71
2021/03/30 04:28:39;;;;;;;14.90;4.43;;;;;;;7.91;100.00;99408.72;5086610;28;20613;-72
2021/03/30 04:31:06;;;;;;;7.50;4.10;;;;;;;7.99;100.00;99399.81;5094572;28;20247;-72
2021/03/30 04:33:33;;;;;;;9.10;3.97;;;;;;;7.98;100.00;99406.44;5092512;28;20252;-72
2021/03/30 04:35:59;;;;;;;8.67;5.10;;;;;;;8.05;100.00;99406.91;5093911;28;20276;-72
2021/03/30 04:38:25;;;;;;;11.97;4.60;;;;;;;8.04;100.00;99413.53;5093532;28;20600;-72
2021/03/30 04:40:55;;;;;;;10.60;4.63;;;;;;;7.95;100.00;99414.44;5088973;28;20201;-71
2021/03/30 04:43:21;;;;;;;16.10;4.67;;;;;;;8.00;100.00;99415.22;5073222;28;20229;-72
2021/03/30 04:45:48;;;;;;;12.07;4.20;;;;;;;8.04;100.00;99419.03;5073454;28;20296;-71
2021/03/30 04:48:14;;;;;;;7.37;4.40;;;;;;;8.05;100.00;99409.66;5073502;28;20312;-71
2021/03/30 04:50:40;;;;;;;11.10;4.63;;;;;;;8.01;100.00;99414.09;5073959;28;20255;-71
2021/03/30 04:53:06;;;;;;;11.93;5.03;;;;;;;8.06;100.00;99419.53;5073502;28;20271;-72
2021/03/30 04:55:33;;;;;;;10.33;4.70;;;;;;;8.10;100.00;99415.09;5072856;28;20292;-72
2021/03/30 04:57:59;;;;;;;10.23;4.50;;;;;;;8.17;100.00;99421.06;5073241;28;20249;-70
2021/03/30 05:00:25;;;;;;;7.70;4.53;;;;;;;8.05;100.00;99420.66;5073472;28;20227;-72
2021/03/30 05:02:51;;;;;;;13.17;4.20;;;;;;;8.00;100.00;99422.63;5071738;28;20236;-70
2021/03/30 05:05:18;;;;;;;9.70;4.80;;;;;;;8.10;100.00;99428.84;5073482;28;20262;-71
2021/03/30 05:07:44;;;;;;;8.37;4.47;;;;;;;8.18;100.00;99431.00;5072909;28;20311;-71
2021/03/30 05:10:10;;;;;;;9.13;4.63;;;;;;;8.31;100.00;99439.69;5073080;28;20252;-71
2021/03/30 05:12:37;;;;;;;14.13;4.80;;;;;;;8.30;100.00;99438.06;5072717;28;20233;-71
2021/03/30 05:15:04;;;;;;;8.17;4.77;;;;;;;8.46;100.00;99431.28;5071922;28;20259;-71
2021/03/30 05:17:30;;;;;;;11.83;4.20;;;;;;;8.87;100.00;99437.94;5075275;28;20308;-71
2021/03/30 05:19:56;;;;;;;17.47;4.87;;;;;;;9.43;100.00;99432.50;5073402;28;20216;-71
2021/03/30 05:22:22;;;;;;;11.27;4.57;;;;;;;9.37;100.00;99441.94;5092390;28;20200;-71
2021/03/30 05:24:48;;;;;;;9.30;4.23;;;;;;;9.23;100.00;99442.69;5092813;28;20204;-71
2021/03/30 05:27:14;;;;;;;10.50;4.60;;;;;;;9.93;100.00;99434.44;5092499;28;20248;-71
2021/03/30 05:29:43;;;;;;;10.60;4.40;;;;;;;10.18;100.00;99440.38;5091631;28;20654;-71
2021/03/30 05:32:11;;;;;;;12.93;4.97;;;;;;;9.74;100.00;99431.75;5074852;28;20314;-71
2021/03/30 05:34:38;;;;;;;9.57;4.13;;;;;;;10.30;100.00;99436.31;5073076;28;20205;-72
2021/03/30 05:37:05;;;;;;;11.13;4.67;;;;;;;10.25;100.00;99436.41;5071499;28;20225;-71
2021/03/30 05:39:32;;;;;;;12.83;4.73;;;;;;;9.92;100.00;99439.16;5083347;28;20224;-71
2021/03/30 05:41:59;;;;;;;13.37;5.20;;;;;;;9.76;100.00;99445.22;5083423;28;20217;-71
2021/03/30 05:44:27;;;;;;;10.70;4.83;;;;;;;10.00;100.00;99445.91;5078977;28;20280;-71
2021/03/30 05:49:37;;;;;;;16.83;4.87;;;;;;;10.09;100.00;99457.94;5088304;28;20682;-71
2021/03/30 05:52:08;;;;;;;12.93;4.67;;;;;;;10.57;100.00;99455.69;5083428;28;20240;-72
2021/03/30 05:54:37;;;;;;;8.80;4.73;;;;;;;11.16;100.00;99450.88;5076835;28;20211;-71
2021/03/30 05:57:08;;;;;;;9.53;4.33;;;;;;;10.96;100.00;99456.00;5073316;28;20225;-72
2021/03/30 05:59:35;;;;;;;12.60;4.83;;;;;;;10.62;100.00;99458.38;5079234;28;20221;-73
2021/03/30 06:02:01;;;;;;;12.67;5.10;;;;;;;10.72;100.00;99460.91;5098224;28;20239;-73
2021/03/30 06:04:28;;;;;;;9.00;4.50;;;;;;;11.21;100.00;99466.53;5097861;28;20204;-71
2021/03/30 06:06:54;;;;;;;11.87;4.77;;;;;;;11.36;100.00;99455.16;5097927;28;20248;-71
2021/03/30 06:09:20;;;;;;;12.60;4.97;;;;;;;12.53;100.00;99467.81;5103193;28;20205;-72
2021/03/30 06:12:02;;;;;;;8.50;4.70;;;;;;;13.90;100.00;99455.16;5103733;28;20235;-74
2021/03/30 06:14:39;;;;;;;8.90;4.00;;;;;;;15.48;100.00;99456.47;5091121;28;20226;-71
2021/03/30 06:17:07;;;;;;;11.73;4.60;;;;;;;16.93;100.00;99460.69;5099107;28;20644;-71
2021/03/30 06:19:54;;;;;;;13.00;4.73;;;;;;;17.68;100.00;99453.59;5100598;28;20208;-74
2021/03/30 06:22:24;;;;;;;11.07;4.67;;;;;;;17.92;100.00;99456.34;5106934;28;20228;-73
2021/03/30 06:24:52;;;;;;;11.27;4.60;;;;;;;18.00;100.00;99461.00;5104734;28;20208;-72
2021/03/30 06:27:29;;;;;;;13.15;4.72;;;;;;;18.10;100.00;99451.31;5094127;28;20228;-77
2021/03/30 06:29:59;;;;;;;12.35;4.38;;;;;;;18.34;100.00;99455.97;5094332;28;20211;-74
2021/03/30 06:32:27;;;;;;;10.18;4.50;;;;;;;18.16;100.00;99456.28;5094717;28;20227;-73
2021/03/30 06:35:08;;;;;;;13.40;4.03;;;;;;;18.42;100.00;99449.44;5096736;28;20252;-74
2021/03/30 06:37:38;;;;;;;11.45;4.50;;;;;;;18.53;100.00;99456.13;5096476;28;20281;-74
2021/03/30 06:40:18;;;;;;;7.00;3.85;;;;;;;18.13;100.00;99462.56;5080045;28;20304;-73
2021/03/30 06:42:51;;;;;;;20.23;4.38;;;;;;;18.55;100.00;99456.59;5073733;28;20236;-72
2021/03/30 06:45:26;;;;;;;13.02;4.20;;;;;;;18.61;100.00;99460.75;5075644;28;20205;-72
2021/03/30 06:47:56;;;;;;;13.77;4.28;;;;;;;18.81;100.00;99454.09;5074121;28;20221;-73
2021/03/30 06:50:34;;;;;;;10.18;4.00;;;;;;;19.14;100.00;99446.97;5075619;28;20281;-73
2021/03/30 06:53:13;;;;;;;10.32;4.00;;;;;;;19.34;100.00;99456.31;5076177;28;20209;-72
2021/03/30 06:55:51;;;;;;;7.28;3.75;;;;;;;19.48;100.00;99448.25;5075104;28;20209;-73
2021/03/30 06:58:18;;;;;;;7.50;3.63;;;;;;;19.54;100.00;99449.59;5076937;28;20319;-73
2021/03/30 07:00:45;;;;;;;8.65;3.58;;;;;;;19.85;100.00;99448.69;5079166;28;20258;-73
2021/03/30 07:03:19;;;;;;;9.60;3.50;;;;;;;19.94;100.00;99452.88;5083148;28;20233;-73
2021/03/30 07:05:52;;;;;;;8.85;3.70;;;;;;;19.95;100.00;99443.31;5094187;28;20189;-73
2021/03/30 07:08:20;;;;;;;12.95;3.60;;;;;;;20.38;100.00;99444.22;5099401;28;20212;-73
2021/03/30 07:10:53;;;;;;;5.75;3.92;;;;;;;20.76;97.04;99449.78;5098500;28;20211;-72
2021/03/30 07:13:22;;;;;;;10.20;3.88;;;;;;;21.08;94.43;99448.38;5077049;28;20292;-73
2021/03/30 07:15:57;;;;;;;7.10;3.58;;;;;;;21.26;94.85;99449.47;5075306;28;20552;-73
2021/03/30 07:18:30;;;;;;;8.45;4.00;;;;;;;21.44;89.73;99453.38;5076619;28;20228;-73
2021/03/30 07:21:03;;;;;;;9.32;4.03;;;;;;;21.73;90.00;99449.81;5077596;28;20666;-73
2021/03/30 07:23:31;;;;;;;7.43;3.63;;;;;;;22.01;84.00;99450.25;5078606;28;20225;-74
2021/03/30 07:26:03;;;;;;;8.68;4.07;;;;;;;22.34;82.44;99452.28;5080239;28;20244;-74
2021/03/30 07:28:34;;;;;;;8.88;3.80;;;;;;;22.77;77.18;99445.19;5079317;28;20253;-74
2021/03/30 07:31:05;;;;;;;10.82;3.97;;;;;;;23.05;75.23;99448.25;5097995;28;20855;-74
2021/03/30 07:33:43;;;;;;;10.50;4.15;;;;;;;23.07;74.51;99443.03;5097586;28;20212;-74
2021/03/30 07:36:13;;;;;;;8.30;4.00;;;;;;;23.41;72.46;99438.94;5095723;28;20711;-74
2021/03/30 07:38:45;;;;;;;9.82;4.10;;;;;;;23.48;69.11;99435.38;5094855;28;20252;-74
2021/03/30 07:41:19;;;;;;;10.13;4.43;;;;;;;23.71;67.81;99428.28;5087315;28;20236;-74
2021/03/30 07:43:46;;;;;;;13.20;4.40;;;;;;;23.89;62.92;99434.84;5074142;28;20282;-74
2021/03/30 07:46:19;;;;;;;14.57;4.38;;;;;;;23.98;64.82;99435.28;5074097;28;20597;-74
2021/03/30 07:48:47;;;;;;;11.93;4.55;;;;;;;24.05;63.06;99440.19;5074643;28;20225;-75
2021/03/30 07:51:14;;;;;;;11.52;4.50;;;;;;;24.45;61.90;99448.41;5075066;28;20708;-74
2021/03/30 07:54:00;;;;;;;17.83;4.30;;;;;;;24.22;60.66;99433.00;5074423;28;20224;-73
2021/03/30 07:56:26;;;;;;;12.75;4.93;;;;;;;24.12;63.35;99430.97;5071494;28;20255;-74
2021/03/30 07:58:55;;;;;;;15.57;4.97;;;;;;;23.89;57.83;99437.66;5074693;28;20292;-74
2021/03/30 08:01:23;;;;;;;9.32;5.03;;;;;;;24.36;60.03;99433.09;5075159;28;20220;-74
2021/03/30 08:03:52;;;;;;;9.52;3.50;;;;;;;24.57;60.13;99438.78;5075361;28;20226;-75
2021/03/30 08:06:47;;;;;;;16.40;4.88;;;;;;;24.82;56.78;99425.56;5076149;28;20580;-74
2021/03/30 08:09:17;;;;;;;14.27;4.70;;;;;;;24.39;60.60;99432.28;5075238;28;20300;-74
2021/03/30 08:11:43;;;;;;;23.23;5.05;;;;;;;24.45;57.54;99431.47;5074251;28;20212;-75
2021/03/30 08:14:17;;;;;;;11.43;4.88;;;;;;;25.04;56.40;99439.31;5072833;28;20292;-74
2021/03/30 08:17:02;;;;;;;20.45;5.00;;;;;;;25.55;54.80;99424.81;5074359;28;20221;-74
2021/03/30 08:19:28;;;;;;;15.30;5.35;;;;;;;25.47;54.17;99431.69;5074314;28;20304;-74
2021/03/30 08:21:55;;;;;;;21.95;5.72;;;;;;;25.64;51.06;99430.84;5075476;28;20358;-74
2021/03/30 08:24:48;;;;;;;13.60;5.38;;;;;;;25.51;52.63;99432.47;5074784;28;20625;-74
2021/03/30 08:27:36;;;;;;;24.48;5.85;;;;;;;25.51;51.49;99432.47;5073835;28;20231;-74
2021/03/30 08:30:36;;;;;;;23.02;5.55;;;;;;;25.74;52.42;99434.88;5087985;28;20200;-74
2021/03/30 08:33:04;;;;;;;20.58;5.18;;;;;;;26.08;52.74;99433.22;5094840;28;20212;-75
2021/03/30 08:35:38;;;;;;;17.95;5.90;;;;;;;25.67;51.18;99434.91;5094934;28;20230;-74
2021/03/30 08:38:05;;;;;;;30.95;6.22;;;;;;;25.23;53.20;99432.47;5094492;28;20310;-74
2021/03/30 08:40:34;;;;;;;15.18;5.95;;;;;;;25.80;51.52;99433.25;5092873;28;20265;-75
2021/03/30 08:43:19;;;;;;;14.98;5.50;;;;;;;25.88;51.88;99435.66;5073498;28;20228;-74
2021/03/30 08:46:05;;;;;;;25.73;6.07;;;;;;;26.03;54.03;99436.44;5075680;28;20204;-73
2021/03/30 08:48:37;;;;;;;26.95;6.85;;;;;;;25.40;52.04;99431.69;5077337;28;20653;-74
2021/03/30 08:51:06;;;;;;;22.17;5.90;;;;;;;25.71;50.25;99439.31;5078751;28;20204;-74
2021/03/30 08:53:34;;;;;;;25.13;6.15;;;;;;;26.20;50.48;99429.13;5086624;28;20235;-74
2021/03/30 08:56:03;;;;;;;42.92;7.18;;;;;;;26.14;50.38;99442.09;5084743;28;20203;-74
2021/03/30 08:58:32;;;;;;;17.88;6.07;;;;;;;25.60;51.88;99435.69;5088157;28;20221;-74
2021/03/30 09:01:06;;;;;;;20.17;7.20;;;;;;;25.79;51.47;99437.28;5083274;28;20231;-73
2021/03/30 09:03:33;;;;;;;23.25;7.28;;;;;;;25.74;50.66;99435.69;5091147;28;20224;-73
2021/03/30 09:05:59;;;;;;;16.15;6.82;;;;;;;26.02;53.57;99435.63;5095474;28;20204;-73
2021/03/30 09:08:35;;;;;;;18.08;7.43;;;;;;;25.87;50.06;99434.06;5094047;28;20717;-73
2021/03/30 09:11:25;;;;;;;13.10;7.45;;;;;;;26.35;51.44;99434.31;5095125;28;20982;-73
2021/03/30 09:14:02;;;;;;;28.95;7.18;;;;;;;26.74;48.33;99431.31;5095362;28;20209;-73
2021/03/30 09:16:29;;;;;;;25.42;8.02;;;;;;;26.63;47.63;99433.38;5093871;28;20242;-70
2021/03/30 09:19:18;;;;;;;25.88;7.53;;;;;;;26.44;48.28;99428.22;5090103;28;20554;-71
2021/03/30 09:21:48;;;;;;;23.48;7.80;;;;;;;26.51;48.37;99428.19;5090629;28;20250;-72
2021/03/30 09:24:28;;;;;;;31.65;7.30;;;;;;;26.35;50.16;99425.81;5088492;28;20228;-72
2021/03/30 09:26:56;;;;;;;22.17;7.75;;;;;;;26.02;47.56;99429.16;5091030;28;20224;-72
2021/03/30 09:29:22;;;;;;;29.90;8.02;;;;;;;26.07;47.82;99425.94;5092335;28;20243;-72
2021/03/30 09:31:49;;;;;;;20.63;8.35;;;;;;;26.19;50.18;99416.19;5094116;28;20239;-71
2021/03/30 09:34:15;;;;;;;21.65;7.63;;;;;;;26.44;49.73;99414.06;5094170;28;20654;-72
2021/03/30 09:36:47;;;;;;;25.15;7.35;;;;;;;26.08;50.69;99409.75;5091358;28;20243;-72
2021/03/30 09:39:21;;;;;;;31.08;8.60;;;;;;;26.18;49.86;99403.25;5089822;28;20326;-72
2021/03/30 09:41:49;;;;;;;26.52;8.20;;;;;;;26.26;50.83;99410.50;5084349;28;20689;-71
2021/03/30 09:44:17;;;;;;;26.58;8.80;;;;;;;26.66;50.19;99407.06;5092240;28;20220;-72
2021/03/30 09:46:45;;;;;;;22.55;8.45;;;;;;;26.58;48.33;99405.47;5104376;28;20188;-72
2021/03/30 09:49:14;;;;;;;30.17;8.55;;;;;;;26.40;49.55;99404.78;5114195;28;20200;-73
2021/03/30 09:51:42;;;;;;;30.25;8.65;;;;;;;26.33;49.70;99391.44;5112769;28;20200;-72
2021/03/30 09:54:22;;;;;;;18.35;8.00;;;;;;;26.11;49.66;99398.44;5103819;28;20290;-72
2021/03/30 09:56:57;;;;;;;24.52;7.85;;;;;;;25.91;50.72;99403.72;5095128;28;20236;-72
2021/03/30 09:59:23;;;;;;;14.25;7.80;;;;;;;26.23;49.40;99389.47;5094437;28;20248;-72
2021/03/30 10:01:50;;;;;;;21.48;8.30;;;;;;;26.56;49.61;99386.06;5095346;28;20208;-71
2021/03/30 10:04:16;;;;;;;17.65;9.23;;;;;;;26.79;53.72;99389.19;5094112;28;20220;-72
2021/03/30 10:06:42;;;;;;;24.25;8.75;;;;;;;26.64;51.31;99392.50;5101721;28;20235;-73
2021/03/30 10:09:09;;;;;;;22.77;8.50;;;;;;;26.46;52.58;99388.97;5101466;28;20208;-73
2021/03/30 10:11:35;;;;;;;26.45;8.52;;;;;;;26.50;51.50;99382.06;5098778;28;20225;-73
2021/03/30 10:14:23;;;;;;;26.98;9.48;;;;;;;26.55;50.23;99373.13;5091814;28;20204;-71
2021/03/30 10:16:55;;;;;;;27.23;9.23;;;;;;;26.45;49.86;99365.50;5094868;28;20220;-71
2021/03/30 10:19:22;;;;;;;31.50;9.35;;;;;;;25.54;48.92;99368.66;5096930;28;20275;-72
2021/03/30 10:21:54;;;;;;;28.60;9.80;;;;;;;25.96;51.16;99369.34;5091418;28;20275;-72
2021/03/30 10:24:21;;;;;;;18.27;9.93;;;;;;;25.60;50.10;99370.66;5091538;28;20348;-71
2021/03/30 10:27:05;;;;;;;26.80;9.90;;;;;;;25.37;49.24;99366.63;5090335;28;20679;-70
2021/03/30 10:29:33;;;;;;;25.02;9.75;;;;;;;25.32;48.75;99362.22;5093125;28;20277;-71
2021/03/30 10:32:07;;;;;;;22.60;9.63;;;;;;;25.42;48.87;99364.22;5096090;28;20220;-71
2021/03/30 10:34:35;;;;;;;21.85;9.98;;;;;;;25.49;45.92;99355.72;5094424;28;20345;-71
2021/03/30 10:37:07;;;;;;;17.02;10.15;;;;;;;25.45;47.97;99360.63;5093893;28;20879;-70
2021/03/30 10:39:38;;;;;;;17.65;9.73;;;;;;;25.27;48.34;99354.16;5093465;28;20211;-72
2021/03/30 10:42:10;;;;;;;25.25;9.93;;;;;;;25.32;50.68;99350.09;5094838;28;20227;-71
2021/03/30 10:44:38;;;;;;;31.63;10.10;;;;;;;25.01;48.52;99340.44;5092840;28;20359;-71
2021/03/30 10:47:29;;;;;;;19.13;10.10;;;;;;;25.21;46.60;99341.63;5093585;28;20311;-72
2021/03/30 10:49:56;;;;;;;30.90;11.05;;;;;;;25.15;45.41;99340.41;5092186;28;20341;-72
2021/03/30 10:52:34;;;;;;;21.58;10.23;;;;;;;25.18;44.17;99344.47;5093931;28;20258;-72
2021/03/30 10:55:06;;;;;;;20.23;9.73;;;;;;;25.05;43.76;99335.59;5093421;28;20302;-72
2021/03/30 10:57:36;;;;;;;23.13;9.23;;;;;;;25.05;44.77;99336.38;5076373;28;20225;-71
2021/03/30 11:00:07;;;;;;;14.07;7.20;;;;;;;24.78;41.39;99323.09;5094040;28;20653;-73
2021/03/30 11:02:34;;;;;;;17.38;7.57;;;;;;;24.46;41.30;99331.50;5094323;28;20790;-74
2021/03/30 11:05:04;;;;;;;16.98;7.65;;;;;;;24.48;39.19;99326.25;5094814;28;20227;-72
2021/03/30 11:07:30;;;;;;;13.20;7.50;;;;;;;24.64;40.88;99314.56;5093664;28;20277;-73
2021/03/30 11:09:56;;;;;;;12.43;7.13;;;;;;;24.95;39.54;99314.59;5092033;28;20288;-72
2021/03/30 11:12:22;;;;;;;16.27;7.35;;;;;;;24.91;39.92;99313.78;5093369;28;20216;-72
2021/03/30 11:14:48;;;;;;;16.75;7.80;;;;;;;24.90;40.69;99305.72;5085002;28;20224;-73
2021/03/30 11:17:14;;;;;;;16.00;7.40;;;;;;;24.84;38.90;99312.97;5091858;28;20217;-72
2021/03/30 11:19:41;;;;;;;17.13;7.43;;;;;;;24.78;38.79;99306.94;5092272;28;20216;-72
2021/03/30 11:22:08;;;;;;;14.13;7.05;;;;;;;24.78;38.70;99298.44;5090465;28;20196;-73
2021/03/30 11:24:39;;;;;;;12.10;7.70;;;;;;;24.59;38.65;99298.03;5091014;28;20247;-72
2021/03/30 11:27:06;;;;;;;28.35;8.93;;;;;;;24.80;40.81;99298.03;5093110;28;20290;-73
2021/03/30 11:32:25;;;;;;;20.67;8.52;;;;;;;24.66;43.55;99301.66;5092742;28;20841;-73
2021/03/30 11:34:57;;;;;;;17.63;8.75;;;;;;;24.58;43.42;99288.75;5090439;28;20196;-72
2021/03/30 11:39:57;;;;;;;15.68;7.38;;;;;;;24.31;42.31;99284.69;5092478;28;20287;-74
2021/03/30 11:42:24;;;;;;;16.33;6.60;;;;;;;24.76;40.90;99283.16;5091920;28;20341;-73
2021/03/30 11:44:51;;;;;;;9.98;5.75;;;;;;;24.25;37.34;99280.63;5091320;28;20567;-72
2021/03/30 11:47:18;;;;;;;13.38;6.28;;;;;;;24.21;37.86;99279.03;5092640;28;20774;-72
2021/03/30 11:49:44;;;;;;;10.07;6.40;;;;;;;23.89;36.61;99274.06;5091275;28;20584;-72
2021/03/30 11:52:10;;;;;;;10.75;6.10;;;;;;;24.02;40.44;99272.53;5088378;28;20258;-73
2021/03/30 11:54:37;;;;;;;9.13;6.47;;;;;;;24.26;38.72;99264.50;5076807;28;20197;-74
2021/03/30 11:57:04;;;;;;;9.77;6.45;;;;;;;24.50;39.05;99263.75;5074914;28;20330;-73
2021/03/30 11:59:30;;;;;;;11.25;5.82;;;;;;;24.51;38.37;99256.88;5074975;28;20788;-73
2021/03/30 12:01:57;;;;;;;14.00;7.45;;;;;;;24.13;37.89;99257.63;5072853;28;20731;-76
2021/03/30 12:04:23;;;;;;;15.07;7.32;;;;;;;24.09;41.21;99255.63;5074332;28;20243;-75
2021/03/30 12:06:52;;;;;;;14.00;7.32;;;;;;;23.87;40.98;99250.28;5074526;28;20232;-74
2021/03/30 12:09:18;;;;;;;15.23;7.13;;;;;;;24.22;39.71;99246.75;5074715;28;20213;-74
2021/03/30 12:11:46;;;;;;;8.18;5.50;;;;;;;23.44;37.77;99245.72;5075150;28;20697;-74
2021/03/30 12:14:13;;;;;;;11.63;6.22;;;;;;;23.94;38.62;99242.66;5071910;28;20262;-73
2021/03/30 12:16:40;;;;;;;10.45;4.93;;;;;;;23.71;37.58;99232.91;5070668;28;20315;-72
2021/03/30 12:19:06;;;;;;;9.38;5.35;;;;;;;23.89;39.00;99228.13;5072645;28;20548;-73
2021/03/30 12:21:33;;;;;;;13.93;6.05;;;;;;;23.62;36.43;99230.50;5073637;28;20213;-74